VOE2285 LGIR-LFRS
Flight info
| Callsign | VOE2285 |
|---|---|
| Flight time | N/A |
| Altitude | 38000 |
| Route | EPALO M749 DIRMI UL613 KOR DCT TIGRA DCT TUFTE DCT KATAR DCT OGLAK DCT TOP DCT RONOP DCT GIGUS DCT BALSI DCT GIPNO DCT RUSIT DCT TIS DCT VALKU/N0438F370 DCT PECNO DCT LMG/N0438F380 DCT MANAK |
| Aircraft | A319/M-SDFGIJ1RWY/LB1 |
Departure
| Time | 2026-05-01 09:38 |
|---|---|
| Airport | Heraklion International Nikos Kazantzakis Airport (LGIR) |
Arrival
| Time | N/A |
|---|---|
| Airport | Nantes Atlantique Airport (LFRS) |
| Time | Latitude | Longitude | Altitude | Speed | Heading |
|---|---|---|---|---|---|
| 2026-05-01 09:11 | 35.33878 | 25.17423 | 91 ft | 0 kts | 316° |
| 2026-05-01 09:21 | 35.33878 | 25.17424 | 91 ft | 0 kts | 316° |
| 2026-05-01 09:29 | 35.33877 | 25.17424 | 91 ft | 0 kts | 316° |
| 2026-05-01 09:34 | 35.33893 | 25.17406 | 91 ft | 5 kts | 316° |
| 2026-05-01 09:35 | 35.33932 | 25.17217 | 91 ft | 29 kts | 275° |
| 2026-05-01 09:35 | 35.33960 | 25.16802 | 91 ft | 27 kts | 277° |
| 2026-05-01 09:35 | 35.34055 | 25.16636 | 91 ft | 16 kts | 2° |
| 2026-05-01 09:36 | 35.34068 | 25.16684 | 90 ft | 7 kts | 99° |
| 2026-05-01 09:36 | 35.34065 | 25.16724 | 90 ft | 0 kts | 94° |
| 2026-05-01 09:37 | 35.34044 | 25.17042 | 91 ft | 81 kts | 95° |
| 2026-05-01 09:38 | 35.33880 | 25.19392 | 657 ft | 161 kts | 91° |
| 2026-05-01 09:38 | 35.33847 | 25.20741 | 1434 ft | 157 kts | 73° |
| 2026-05-01 09:38 | 35.34429 | 25.21833 | 2063 ft | 157 kts | 34° |
| 2026-05-01 09:39 | 35.36601 | 25.21832 | 3065 ft | 191 kts | 319° |
| 2026-05-01 09:39 | 35.37332 | 25.20402 | 3613 ft | 210 kts | 294° |
| 2026-05-01 09:39 | 35.37930 | 25.18738 | 4626 ft | 212 kts | 292° |
| 2026-05-01 09:40 | 35.38561 | 25.17094 | 5621 ft | 215 kts | 300° |
| 2026-05-01 09:40 | 35.41172 | 25.15145 | 7430 ft | 230 kts | 336° |
| 2026-05-01 09:40 | 35.42725 | 25.14434 | 8084 ft | 250 kts | 335° |
| 2026-05-01 09:41 | 35.44428 | 25.13646 | 8653 ft | 271 kts | 335° |
| 2026-05-01 09:41 | 35.48039 | 25.11976 | 10482 ft | 286 kts | 334° |
| 2026-05-01 09:41 | 35.49975 | 25.11072 | 10879 ft | 310 kts | 334° |
| 2026-05-01 09:42 | 35.52073 | 25.10089 | 11208 ft | 334 kts | 334° |
| 2026-05-01 09:42 | 35.54321 | 25.09036 | 11449 ft | 358 kts | 335° |
| 2026-05-01 09:42 | 35.59171 | 25.06779 | 12537 ft | 380 kts | 335° |
| 2026-05-01 09:43 | 35.64169 | 25.04465 | 14044 ft | 388 kts | 335° |
| 2026-05-01 09:43 | 35.66705 | 25.03286 | 14711 ft | 392 kts | 334° |
| 2026-05-01 09:43 | 35.69275 | 25.02089 | 15380 ft | 396 kts | 334° |
| 2026-05-01 09:44 | 35.74471 | 24.99661 | 16664 ft | 403 kts | 334° |
| 2026-05-01 09:44 | 35.77102 | 24.98426 | 17272 ft | 406 kts | 334° |
| 2026-05-01 09:44 | 35.79753 | 24.97183 | 17876 ft | 410 kts | 334° |
| 2026-05-01 09:45 | 35.82426 | 24.95921 | 18448 ft | 412 kts | 333° |
| 2026-05-01 09:45 | 35.87183 | 24.92120 | 19440 ft | 409 kts | 319° |
| 2026-05-01 09:45 | 35.89456 | 24.90011 | 19965 ft | 410 kts | 318° |
| 2026-05-01 09:46 | 35.91731 | 24.87891 | 20489 ft | 411 kts | 318° |
| 2026-05-01 09:46 | 35.94016 | 24.85754 | 21001 ft | 412 kts | 318° |
| 2026-05-01 09:46 | 35.96330 | 24.83585 | 21490 ft | 414 kts | 318° |
| 2026-05-01 09:46 | 35.98596 | 24.81462 | 21990 ft | 415 kts | 318° |
| 2026-05-01 09:47 | 36.00903 | 24.79302 | 22448 ft | 417 kts | 317° |
| 2026-05-01 09:47 | 36.03244 | 24.77111 | 22911 ft | 418 kts | 317° |
| 2026-05-01 09:47 | 36.05570 | 24.74934 | 23347 ft | 420 kts | 317° |
| 2026-05-01 09:47 | 36.07906 | 24.72745 | 23765 ft | 421 kts | 317° |
| 2026-05-01 09:48 | 36.10240 | 24.70555 | 24121 ft | 423 kts | 317° |
| 2026-05-01 09:48 | 36.12588 | 24.68349 | 24475 ft | 424 kts | 317° |
| 2026-05-01 09:48 | 36.14937 | 24.66142 | 24825 ft | 425 kts | 317° |
| 2026-05-01 09:48 | 36.17298 | 24.63920 | 25164 ft | 426 kts | 317° |
| 2026-05-01 09:49 | 36.19658 | 24.61701 | 25487 ft | 427 kts | 317° |
| 2026-05-01 09:49 | 36.22031 | 24.59470 | 25836 ft | 429 kts | 317° |
| 2026-05-01 09:49 | 36.24406 | 24.57232 | 26130 ft | 430 kts | 317° |
| 2026-05-01 09:49 | 36.26790 | 24.54983 | 26420 ft | 431 kts | 317° |
| 2026-05-01 09:50 | 36.29174 | 24.52734 | 26878 ft | 430 kts | 317° |
| 2026-05-01 09:50 | 36.31541 | 24.50497 | 27383 ft | 427 kts | 317° |
| 2026-05-01 09:50 | 36.33896 | 24.48269 | 27887 ft | 424 kts | 317° |
| 2026-05-01 09:50 | 36.36235 | 24.46054 | 28402 ft | 421 kts | 316° |
| 2026-05-01 09:51 | 36.38554 | 24.43855 | 28920 ft | 419 kts | 316° |
| 2026-05-01 09:51 | 36.40865 | 24.41661 | 29464 ft | 416 kts | 316° |
| 2026-05-01 09:51 | 36.43156 | 24.39489 | 30016 ft | 414 kts | 316° |
| 2026-05-01 09:51 | 36.45440 | 24.37327 | 30526 ft | 411 kts | 316° |
| 2026-05-01 09:52 | 36.47704 | 24.35187 | 30982 ft | 408 kts | 316° |
| 2026-05-01 09:52 | 36.49958 | 24.33048 | 31408 ft | 407 kts | 316° |
| 2026-05-01 09:52 | 36.52202 | 24.30913 | 31808 ft | 406 kts | 316° |
| 2026-05-01 09:52 | 36.54442 | 24.28777 | 32223 ft | 405 kts | 316° |
| 2026-05-01 09:53 | 36.56672 | 24.26646 | 32680 ft | 404 kts | 316° |
| 2026-05-01 09:53 | 36.58899 | 24.24520 | 33126 ft | 402 kts | 316° |
| 2026-05-01 09:53 | 36.60396 | 24.23092 | 33420 ft | 401 kts | 316° |
| 2026-05-01 09:54 | 36.67820 | 24.16000 | 34752 ft | 398 kts | 315° |
| 2026-05-01 09:54 | 36.70019 | 24.13898 | 35114 ft | 398 kts | 315° |
| 2026-05-01 09:54 | 36.72239 | 24.11770 | 35472 ft | 397 kts | 315° |
| 2026-05-01 09:55 | 36.74432 | 24.09666 | 35811 ft | 397 kts | 315° |
| 2026-05-01 09:55 | 36.76617 | 24.07566 | 36064 ft | 398 kts | 315° |
| 2026-05-01 09:55 | 36.80995 | 24.03352 | 36125 ft | 397 kts | 315° |
| 2026-05-01 09:56 | 36.85363 | 23.99160 | 36134 ft | 396 kts | 315° |
| 2026-05-01 09:56 | 36.89736 | 23.94957 | 36131 ft | 396 kts | 315° |
| 2026-05-01 09:57 | 36.94097 | 23.90747 | 36129 ft | 396 kts | 315° |
| 2026-05-01 09:57 | 36.98457 | 23.86529 | 36135 ft | 396 kts | 315° |
| 2026-05-01 09:58 | 37.02818 | 23.82312 | 36143 ft | 396 kts | 315° |
| 2026-05-01 09:58 | 37.07179 | 23.78084 | 36141 ft | 396 kts | 315° |
| 2026-05-01 09:59 | 37.11541 | 23.73852 | 36133 ft | 397 kts | 315° |
| 2026-05-01 09:59 | 37.15907 | 23.69615 | 36170 ft | 397 kts | 315° |
| 2026-05-01 10:00 | 37.20270 | 23.65376 | 36165 ft | 397 kts | 315° |
| 2026-05-01 10:00 | 37.24633 | 23.61127 | 36170 ft | 396 kts | 315° |
| 2026-05-01 10:01 | 37.28981 | 23.56880 | 36166 ft | 396 kts | 315° |
| 2026-05-01 10:01 | 37.33338 | 23.52623 | 36162 ft | 396 kts | 315° |
| 2026-05-01 10:02 | 37.37689 | 23.48366 | 36169 ft | 396 kts | 314° |
| 2026-05-01 10:02 | 37.42040 | 23.44097 | 36180 ft | 396 kts | 314° |
| 2026-05-01 10:03 | 37.46389 | 23.39830 | 36149 ft | 396 kts | 314° |
| 2026-05-01 10:03 | 37.50714 | 23.35569 | 36146 ft | 397 kts | 314° |
| 2026-05-01 10:04 | 37.55068 | 23.31276 | 36147 ft | 397 kts | 314° |
| 2026-05-01 10:04 | 37.58721 | 23.27676 | 36152 ft | 397 kts | 315° |
| 2026-05-01 10:05 | 37.63080 | 23.23383 | 36153 ft | 397 kts | 314° |
| 2026-05-01 10:05 | 37.67432 | 23.19081 | 36216 ft | 397 kts | 314° |
| 2026-05-01 10:06 | 37.71787 | 23.14763 | 36189 ft | 398 kts | 314° |
| 2026-05-01 10:06 | 37.76135 | 23.10445 | 36167 ft | 398 kts | 314° |
| 2026-05-01 10:07 | 37.80491 | 23.06111 | 36171 ft | 398 kts | 314° |
| 2026-05-01 10:07 | 37.84840 | 23.01780 | 36176 ft | 398 kts | 314° |
| 2026-05-01 10:08 | 37.91374 | 22.95260 | 36185 ft | 398 kts | 314° |
| 2026-05-01 10:09 | 37.94998 | 22.90178 | 36182 ft | 385 kts | 301° |
| 2026-05-01 10:09 | 37.98143 | 22.84664 | 36188 ft | 386 kts | 301° |
| 2026-05-01 10:10 | 38.01306 | 22.79159 | 36180 ft | 387 kts | 301° |
| 2026-05-01 10:10 | 38.06044 | 22.70866 | 36180 ft | 386 kts | 301° |
| 2026-05-01 10:11 | 38.09196 | 22.65332 | 36180 ft | 387 kts | 301° |
| 2026-05-01 10:11 | 38.12351 | 22.59785 | 36181 ft | 387 kts | 301° |
| 2026-05-01 10:12 | 38.15495 | 22.54246 | 36179 ft | 387 kts | 301° |
| 2026-05-01 10:13 | 38.20209 | 22.45887 | 36190 ft | 387 kts | 301° |
| 2026-05-01 10:13 | 38.23352 | 22.40324 | 36197 ft | 386 kts | 301° |
| 2026-05-01 10:14 | 38.28047 | 22.31996 | 36181 ft | 385 kts | 301° |
| 2026-05-01 10:14 | 38.31172 | 22.26437 | 36200 ft | 386 kts | 301° |
| 2026-05-01 10:15 | 38.34306 | 22.20866 | 36188 ft | 387 kts | 301° |
| 2026-05-01 10:15 | 38.37429 | 22.15314 | 36160 ft | 388 kts | 301° |
| 2026-05-01 10:16 | 38.40565 | 22.09707 | 36162 ft | 388 kts | 301° |
| 2026-05-01 10:17 | 38.45275 | 22.01257 | 36151 ft | 388 kts | 300° |
| 2026-05-01 10:17 | 38.49945 | 21.92871 | 36130 ft | 388 kts | 301° |
| 2026-05-01 10:18 | 38.54654 | 21.84403 | 36135 ft | 389 kts | 300° |
| 2026-05-01 10:19 | 38.57759 | 21.78802 | 36128 ft | 389 kts | 300° |
| 2026-05-01 10:19 | 38.60882 | 21.73157 | 36131 ft | 388 kts | 300° |
| 2026-05-01 10:20 | 38.65553 | 21.64695 | 36131 ft | 389 kts | 301° |
| 2026-05-01 10:20 | 38.68661 | 21.59053 | 36123 ft | 387 kts | 300° |
| 2026-05-01 10:21 | 38.73332 | 21.50558 | 36128 ft | 388 kts | 300° |
| 2026-05-01 10:22 | 38.77991 | 21.42058 | 36124 ft | 388 kts | 300° |
| 2026-05-01 10:23 | 38.82638 | 21.33560 | 36107 ft | 387 kts | 300° |
| 2026-05-01 10:23 | 38.87269 | 21.25071 | 36107 ft | 388 kts | 300° |
| 2026-05-01 10:24 | 38.93446 | 21.13714 | 36092 ft | 388 kts | 300° |
| 2026-05-01 10:25 | 38.99622 | 21.02325 | 36089 ft | 389 kts | 300° |
| 2026-05-01 10:26 | 39.02718 | 20.96598 | 36077 ft | 390 kts | 300° |
| 2026-05-01 10:27 | 39.08915 | 20.85106 | 36075 ft | 391 kts | 300° |
| 2026-05-01 10:28 | 39.13564 | 20.76448 | 36069 ft | 392 kts | 300° |
| 2026-05-01 10:28 | 39.18223 | 20.67758 | 36070 ft | 393 kts | 300° |
| 2026-05-01 10:29 | 39.22885 | 20.59037 | 36055 ft | 394 kts | 300° |
| 2026-05-01 10:30 | 39.29083 | 20.47387 | 36090 ft | 393 kts | 300° |
| 2026-05-01 10:31 | 39.35313 | 20.35661 | 36053 ft | 398 kts | 300° |
| 2026-05-01 10:32 | 39.40013 | 20.26780 | 36047 ft | 399 kts | 300° |
| 2026-05-01 10:33 | 39.46275 | 20.14898 | 36054 ft | 400 kts | 300° |
| 2026-05-01 10:34 | 39.50958 | 20.05993 | 36048 ft | 400 kts | 300° |
| 2026-05-01 10:34 | 39.54085 | 20.00038 | 36050 ft | 400 kts | 300° |
| 2026-05-01 10:35 | 39.58245 | 19.92083 | 36057 ft | 400 kts | 300° |
| 2026-05-01 10:35 | 39.61362 | 19.86095 | 36093 ft | 400 kts | 300° |
| 2026-05-01 10:36 | 39.66071 | 19.77063 | 36042 ft | 402 kts | 300° |
| 2026-05-01 10:37 | 39.69203 | 19.71032 | 36036 ft | 404 kts | 300° |
| 2026-05-01 10:37 | 39.73928 | 19.61933 | 36052 ft | 405 kts | 300° |
| 2026-05-01 10:38 | 39.77077 | 19.55848 | 36055 ft | 406 kts | 300° |
| 2026-05-01 10:38 | 39.80210 | 19.49780 | 36066 ft | 406 kts | 300° |
| 2026-05-01 10:39 | 39.83353 | 19.43665 | 36072 ft | 407 kts | 300° |
| 2026-05-01 10:39 | 39.86501 | 19.37537 | 36082 ft | 407 kts | 300° |
| 2026-05-01 10:40 | 39.89652 | 19.31408 | 36081 ft | 408 kts | 300° |
| 2026-05-01 10:40 | 39.92801 | 19.25251 | 36093 ft | 408 kts | 300° |
| 2026-05-01 10:41 | 39.95952 | 19.19095 | 36107 ft | 409 kts | 301° |
| 2026-05-01 10:42 | 40.00678 | 19.09831 | 36113 ft | 410 kts | 301° |
| 2026-05-01 10:42 | 40.03827 | 19.03627 | 36109 ft | 410 kts | 301° |
| 2026-05-01 10:43 | 40.06989 | 18.97422 | 36116 ft | 411 kts | 301° |
| 2026-05-01 10:43 | 40.10197 | 18.91242 | 36115 ft | 411 kts | 302° |
| 2026-05-01 10:44 | 40.13406 | 18.85057 | 36114 ft | 411 kts | 301° |
| 2026-05-01 10:44 | 40.16607 | 18.78850 | 36122 ft | 411 kts | 301° |
| 2026-05-01 10:45 | 40.19804 | 18.72642 | 36111 ft | 411 kts | 301° |
| 2026-05-01 10:45 | 40.22998 | 18.66432 | 36127 ft | 411 kts | 301° |
| 2026-05-01 10:46 | 40.26188 | 18.60214 | 36154 ft | 412 kts | 302° |
| 2026-05-01 10:46 | 40.29386 | 18.53977 | 36146 ft | 413 kts | 302° |
| 2026-05-01 10:47 | 40.32591 | 18.47714 | 36144 ft | 414 kts | 302° |
| 2026-05-01 10:47 | 40.35792 | 18.41438 | 36140 ft | 415 kts | 301° |
| 2026-05-01 10:48 | 40.38993 | 18.35118 | 36141 ft | 416 kts | 301° |
| 2026-05-01 10:48 | 40.42199 | 18.28787 | 36143 ft | 417 kts | 302° |
| 2026-05-01 10:49 | 40.45438 | 18.22397 | 36150 ft | 418 kts | 302° |
| 2026-05-01 10:49 | 40.48660 | 18.16041 | 36167 ft | 418 kts | 302° |
| 2026-05-01 10:50 | 40.51879 | 18.09667 | 36181 ft | 418 kts | 301° |
| 2026-05-01 10:50 | 40.55088 | 18.03287 | 36186 ft | 418 kts | 301° |
| 2026-05-01 10:51 | 40.58300 | 17.96890 | 36200 ft | 420 kts | 302° |
| 2026-05-01 10:51 | 40.61521 | 17.90459 | 36183 ft | 421 kts | 302° |
| 2026-05-01 10:52 | 40.64732 | 17.84047 | 36180 ft | 422 kts | 302° |
| 2026-05-01 10:52 | 40.67967 | 17.77573 | 36177 ft | 423 kts | 302° |
| 2026-05-01 10:53 | 40.71197 | 17.71095 | 36162 ft | 423 kts | 302° |
| 2026-05-01 10:53 | 40.74428 | 17.64607 | 36171 ft | 423 kts | 302° |
| 2026-05-01 10:54 | 40.77681 | 17.58064 | 36181 ft | 424 kts | 302° |
| 2026-05-01 10:54 | 40.80906 | 17.51535 | 36181 ft | 424 kts | 301° |
| 2026-05-01 10:55 | 40.84105 | 17.45055 | 36188 ft | 424 kts | 302° |
| 2026-05-01 10:55 | 40.87327 | 17.38520 | 36205 ft | 425 kts | 302° |
| 2026-05-01 10:56 | 40.90558 | 17.31959 | 36177 ft | 426 kts | 302° |
| 2026-05-01 10:56 | 40.93797 | 17.25364 | 36175 ft | 428 kts | 302° |
| 2026-05-01 10:57 | 40.97042 | 17.18736 | 36179 ft | 429 kts | 302° |
| 2026-05-01 10:57 | 41.00288 | 17.12106 | 36191 ft | 429 kts | 302° |
| 2026-05-01 10:58 | 41.03533 | 17.05459 | 36197 ft | 430 kts | 302° |
| 2026-05-01 10:58 | 41.06776 | 16.98791 | 36192 ft | 430 kts | 302° |
| 2026-05-01 10:59 | 41.10020 | 16.92120 | 36194 ft | 430 kts | 302° |
| 2026-05-01 10:59 | 41.13264 | 16.85425 | 36247 ft | 431 kts | 302° |
| 2026-05-01 11:00 | 41.16502 | 16.78730 | 36247 ft | 431 kts | 302° |
| 2026-05-01 11:00 | 41.19737 | 16.72026 | 36255 ft | 432 kts | 302° |
| 2026-05-01 11:01 | 41.23008 | 16.65251 | 36241 ft | 432 kts | 302° |
| 2026-05-01 11:01 | 41.26221 | 16.58558 | 36237 ft | 433 kts | 302° |
| 2026-05-01 11:02 | 41.29462 | 16.51794 | 36233 ft | 434 kts | 302° |
| 2026-05-01 11:02 | 41.32717 | 16.45028 | 36236 ft | 434 kts | 302° |
| 2026-05-01 11:03 | 41.36009 | 16.38292 | 36245 ft | 434 kts | 303° |
| 2026-05-01 11:03 | 41.39307 | 16.31546 | 36239 ft | 434 kts | 303° |
| 2026-05-01 11:04 | 41.42593 | 16.24784 | 36242 ft | 435 kts | 303° |
| 2026-05-01 11:04 | 41.45871 | 16.18010 | 36246 ft | 435 kts | 303° |
| 2026-05-01 11:05 | 41.49150 | 16.11230 | 36263 ft | 435 kts | 303° |
| 2026-05-01 11:05 | 41.51880 | 16.05562 | 36259 ft | 436 kts | 303° |
| 2026-05-01 11:06 | 41.55158 | 15.98732 | 36241 ft | 436 kts | 303° |
| 2026-05-01 11:06 | 41.58437 | 15.91910 | 36267 ft | 437 kts | 303° |
| 2026-05-01 11:07 | 41.63354 | 15.81633 | 36279 ft | 437 kts | 303° |
| 2026-05-01 11:07 | 41.66624 | 15.74765 | 36282 ft | 438 kts | 303° |
| 2026-05-01 11:08 | 41.69901 | 15.67879 | 36284 ft | 438 kts | 303° |
| 2026-05-01 11:09 | 41.74806 | 15.57572 | 36269 ft | 438 kts | 303° |
| 2026-05-01 11:09 | 41.78076 | 15.50669 | 36271 ft | 439 kts | 303° |
| 2026-05-01 11:10 | 41.82969 | 15.40280 | 36287 ft | 439 kts | 303° |
| 2026-05-01 11:10 | 41.86229 | 15.33344 | 36293 ft | 439 kts | 303° |
| 2026-05-01 11:11 | 41.89489 | 15.26404 | 36279 ft | 439 kts | 303° |
| 2026-05-01 11:11 | 41.92752 | 15.19455 | 36297 ft | 439 kts | 303° |
| 2026-05-01 11:12 | 41.96003 | 15.12504 | 36302 ft | 439 kts | 303° |
| 2026-05-01 11:12 | 41.99244 | 15.05549 | 36307 ft | 439 kts | 303° |
| 2026-05-01 11:13 | 42.02482 | 14.98588 | 36311 ft | 439 kts | 303° |
| 2026-05-01 11:13 | 42.05716 | 14.91613 | 36291 ft | 440 kts | 304° |
| 2026-05-01 11:14 | 42.08980 | 14.84565 | 36294 ft | 441 kts | 304° |
| 2026-05-01 11:14 | 42.12201 | 14.77608 | 36300 ft | 441 kts | 304° |
| 2026-05-01 11:15 | 42.15439 | 14.70567 | 36307 ft | 441 kts | 303° |
| 2026-05-01 11:15 | 42.18679 | 14.63515 | 36317 ft | 442 kts | 304° |
| 2026-05-01 11:16 | 42.21926 | 14.56433 | 36317 ft | 442 kts | 303° |
| 2026-05-01 11:16 | 42.25146 | 14.49409 | 36336 ft | 442 kts | 303° |
| 2026-05-01 11:17 | 42.28371 | 14.42356 | 36349 ft | 442 kts | 303° |
| 2026-05-01 11:17 | 42.31597 | 14.35275 | 36360 ft | 442 kts | 303° |
| 2026-05-01 11:18 | 42.34823 | 14.28179 | 36370 ft | 443 kts | 304° |
| 2026-05-01 11:18 | 42.38042 | 14.21080 | 36344 ft | 443 kts | 304° |
| 2026-05-01 11:19 | 42.41263 | 14.13953 | 36354 ft | 444 kts | 304° |
| 2026-05-01 11:19 | 42.44484 | 14.06812 | 36359 ft | 444 kts | 304° |
| 2026-05-01 11:20 | 42.47703 | 13.99656 | 36337 ft | 444 kts | 304° |
| 2026-05-01 11:20 | 42.50941 | 13.92462 | 36345 ft | 444 kts | 304° |
| 2026-05-01 11:21 | 42.54131 | 13.85340 | 36312 ft | 444 kts | 304° |
| 2026-05-01 11:21 | 42.57337 | 13.78178 | 36329 ft | 444 kts | 304° |
| 2026-05-01 11:22 | 42.60526 | 13.71003 | 36352 ft | 443 kts | 304° |
| 2026-05-01 11:22 | 42.63733 | 13.63778 | 36337 ft | 444 kts | 305° |
| 2026-05-01 11:23 | 42.66929 | 13.56589 | 36332 ft | 445 kts | 305° |
| 2026-05-01 11:23 | 42.70104 | 13.49424 | 36283 ft | 445 kts | 305° |
| 2026-05-01 11:24 | 42.73285 | 13.42202 | 36301 ft | 445 kts | 305° |
| 2026-05-01 11:25 | 42.78052 | 13.31368 | 36298 ft | 444 kts | 305° |
| 2026-05-01 11:25 | 42.82818 | 13.20515 | 36316 ft | 445 kts | 305° |
| 2026-05-01 11:26 | 42.87581 | 13.09614 | 36287 ft | 445 kts | 305° |
| 2026-05-01 11:27 | 42.90735 | 13.02364 | 36299 ft | 445 kts | 306° |
| 2026-05-01 11:27 | 42.93893 | 12.95097 | 36308 ft | 444 kts | 306° |
| 2026-05-01 11:28 | 42.97048 | 12.87833 | 36306 ft | 444 kts | 306° |
| 2026-05-01 11:28 | 43.00182 | 12.80572 | 36308 ft | 444 kts | 306° |
| 2026-05-01 11:29 | 43.04879 | 12.69653 | 36308 ft | 443 kts | 306° |
| 2026-05-01 11:30 | 43.09546 | 12.58786 | 36316 ft | 441 kts | 306° |
| 2026-05-01 11:30 | 43.12651 | 12.51538 | 36317 ft | 440 kts | 306° |
| 2026-05-01 11:31 | 43.15738 | 12.44305 | 36323 ft | 440 kts | 307° |
| 2026-05-01 11:31 | 43.18825 | 12.37048 | 36297 ft | 439 kts | 307° |
| 2026-05-01 11:32 | 43.21889 | 12.29841 | 36328 ft | 437 kts | 307° |
| 2026-05-01 11:32 | 43.24939 | 12.22638 | 36327 ft | 435 kts | 307° |
| 2026-05-01 11:33 | 43.27978 | 12.15458 | 36343 ft | 435 kts | 307° |
| 2026-05-01 11:33 | 43.31008 | 12.08272 | 36341 ft | 434 kts | 307° |
| 2026-05-01 11:34 | 43.34035 | 12.01069 | 36308 ft | 434 kts | 307° |
| 2026-05-01 11:34 | 43.37050 | 11.93886 | 36327 ft | 433 kts | 307° |
| 2026-05-01 11:35 | 43.40036 | 11.86751 | 36340 ft | 432 kts | 307° |
| 2026-05-01 11:35 | 43.43023 | 11.79582 | 36337 ft | 433 kts | 307° |
| 2026-05-01 11:36 | 43.45542 | 11.73544 | 36329 ft | 433 kts | 307° |
| 2026-05-01 11:36 | 43.48543 | 11.66336 | 36284 ft | 434 kts | 306° |
| 2026-05-01 11:37 | 43.51520 | 11.59160 | 36296 ft | 434 kts | 306° |
| 2026-05-01 11:37 | 43.54528 | 11.51870 | 36308 ft | 435 kts | 306° |
| 2026-05-01 11:38 | 43.57514 | 11.44622 | 36318 ft | 435 kts | 306° |
| 2026-05-01 11:38 | 43.60508 | 11.37356 | 36329 ft | 435 kts | 306° |
| 2026-05-01 11:39 | 43.63496 | 11.30085 | 36301 ft | 435 kts | 305° |
| 2026-05-01 11:39 | 43.66473 | 11.22805 | 36313 ft | 435 kts | 305° |
| 2026-05-01 11:40 | 43.69453 | 11.15521 | 36313 ft | 435 kts | 305° |
| 2026-05-01 11:40 | 43.72427 | 11.08224 | 36314 ft | 436 kts | 305° |
| 2026-05-01 11:41 | 43.75396 | 11.00906 | 36321 ft | 437 kts | 305° |
| 2026-05-01 11:41 | 43.78365 | 10.93567 | 36327 ft | 437 kts | 304° |
| 2026-05-01 11:42 | 43.81350 | 10.86184 | 36342 ft | 437 kts | 304° |
| 2026-05-01 11:42 | 43.84316 | 10.78822 | 36343 ft | 437 kts | 304° |
| 2026-05-01 11:43 | 43.87254 | 10.71506 | 36331 ft | 437 kts | 304° |
| 2026-05-01 11:43 | 43.90226 | 10.64090 | 36321 ft | 437 kts | 304° |
| 2026-05-01 11:44 | 43.94655 | 10.53035 | 36292 ft | 438 kts | 304° |
| 2026-05-01 11:44 | 43.97602 | 10.45635 | 36296 ft | 438 kts | 304° |
| 2026-05-01 11:45 | 44.00516 | 10.38202 | 36309 ft | 439 kts | 303° |
| 2026-05-01 11:45 | 44.03364 | 10.30698 | 36307 ft | 439 kts | 303° |
| 2026-05-01 11:46 | 44.06201 | 10.23178 | 36304 ft | 439 kts | 303° |
| 2026-05-01 11:46 | 44.09042 | 10.15677 | 36267 ft | 439 kts | 302° |
| 2026-05-01 11:47 | 44.11891 | 10.08157 | 36273 ft | 439 kts | 302° |
| 2026-05-01 11:47 | 44.14734 | 10.00651 | 36292 ft | 439 kts | 302° |
| 2026-05-01 11:48 | 44.17571 | 9.93120 | 36304 ft | 439 kts | 302° |
| 2026-05-01 11:48 | 44.20402 | 9.85590 | 36299 ft | 439 kts | 302° |
| 2026-05-01 11:49 | 44.23245 | 9.77989 | 36282 ft | 439 kts | 301° |
| 2026-05-01 11:49 | 44.26071 | 9.70425 | 36308 ft | 440 kts | 301° |
| 2026-05-01 11:50 | 44.28893 | 9.62859 | 36321 ft | 440 kts | 301° |
| 2026-05-01 11:50 | 44.31708 | 9.55277 | 36339 ft | 439 kts | 301° |
| 2026-05-01 11:51 | 44.34515 | 9.47694 | 36338 ft | 440 kts | 301° |
| 2026-05-01 11:51 | 44.37320 | 9.40108 | 36318 ft | 440 kts | 300° |
| 2026-05-01 11:52 | 44.40122 | 9.32514 | 36327 ft | 440 kts | 300° |
| 2026-05-01 11:52 | 44.42917 | 9.24895 | 36329 ft | 440 kts | 300° |
| 2026-05-01 11:53 | 44.45721 | 9.17222 | 36336 ft | 440 kts | 300° |
| 2026-05-01 11:53 | 44.48488 | 9.09651 | 36339 ft | 440 kts | 300° |
| 2026-05-01 11:54 | 44.51289 | 9.01981 | 36327 ft | 440 kts | 300° |
| 2026-05-01 11:54 | 44.54073 | 8.94344 | 36334 ft | 439 kts | 299° |
| 2026-05-01 11:55 | 44.56833 | 8.86712 | 36338 ft | 439 kts | 299° |
| 2026-05-01 11:55 | 44.59596 | 8.79052 | 36344 ft | 439 kts | 299° |
| 2026-05-01 11:56 | 44.62355 | 8.71405 | 36330 ft | 439 kts | 299° |
| 2026-05-01 11:56 | 44.65105 | 8.63741 | 36342 ft | 439 kts | 298° |
| 2026-05-01 11:57 | 44.67388 | 8.57369 | 36354 ft | 440 kts | 298° |
| 2026-05-01 11:57 | 44.70600 | 8.48379 | 36372 ft | 440 kts | 298° |
| 2026-05-01 11:58 | 44.73338 | 8.40694 | 36370 ft | 440 kts | 298° |
| 2026-05-01 11:59 | 44.77452 | 8.29133 | 36360 ft | 441 kts | 298° |
| 2026-05-01 11:59 | 44.80190 | 8.21398 | 36364 ft | 442 kts | 298° |
| 2026-05-01 12:00 | 44.84305 | 8.09710 | 36368 ft | 442 kts | 298° |
| 2026-05-01 12:01 | 44.88396 | 7.98052 | 36367 ft | 443 kts | 297° |
| 2026-05-01 12:01 | 44.91119 | 7.90253 | 36369 ft | 443 kts | 297° |
| 2026-05-01 12:02 | 44.93869 | 7.82467 | 36370 ft | 443 kts | 298° |
| 2026-05-01 12:02 | 44.96737 | 7.74762 | 36373 ft | 444 kts | 299° |
| 2026-05-01 12:03 | 44.99650 | 7.67062 | 36374 ft | 444 kts | 298° |
| 2026-05-01 12:03 | 45.02539 | 7.59345 | 36372 ft | 444 kts | 298° |
| 2026-05-01 12:04 | 45.05417 | 7.51558 | 36399 ft | 444 kts | 297° |
| 2026-05-01 12:04 | 45.08246 | 7.43848 | 36328 ft | 444 kts | 297° |
| 2026-05-01 12:05 | 45.11114 | 7.36045 | 36327 ft | 444 kts | 297° |
| 2026-05-01 12:05 | 45.14913 | 7.25701 | 36331 ft | 444 kts | 297° |
| 2026-05-01 12:06 | 45.17758 | 7.17926 | 36326 ft | 444 kts | 297° |
| 2026-05-01 12:06 | 45.20247 | 7.09900 | 36330 ft | 445 kts | 292° |
| 2026-05-01 12:07 | 45.22603 | 7.01732 | 36329 ft | 445 kts | 292° |
| 2026-05-01 12:07 | 45.24946 | 6.93587 | 36318 ft | 445 kts | 292° |
| 2026-05-01 12:08 | 45.27282 | 6.85447 | 36325 ft | 445 kts | 292° |
| 2026-05-01 12:08 | 45.29604 | 6.77316 | 36302 ft | 444 kts | 292° |
| 2026-05-01 12:09 | 45.31914 | 6.69179 | 36300 ft | 444 kts | 292° |
| 2026-05-01 12:09 | 45.34218 | 6.61042 | 36285 ft | 444 kts | 292° |
| 2026-05-01 12:10 | 45.37669 | 6.48840 | 36297 ft | 442 kts | 292° |
| 2026-05-01 12:11 | 45.40417 | 6.36361 | 36297 ft | 441 kts | 284° |
| 2026-05-01 12:11 | 45.41969 | 6.27860 | 36284 ft | 442 kts | 284° |
| 2026-05-01 12:12 | 45.43516 | 6.19401 | 36273 ft | 441 kts | 285° |
| 2026-05-01 12:12 | 45.45050 | 6.10957 | 36289 ft | 440 kts | 284° |
| 2026-05-01 12:13 | 45.46577 | 6.02543 | 36290 ft | 439 kts | 284° |
| 2026-05-01 12:13 | 45.48099 | 5.94125 | 36286 ft | 438 kts | 285° |
| 2026-05-01 12:14 | 45.49690 | 5.85740 | 36285 ft | 438 kts | 285° |
| 2026-05-01 12:14 | 45.51326 | 5.77396 | 36290 ft | 437 kts | 285° |
| 2026-05-01 12:15 | 45.52938 | 5.69047 | 36290 ft | 436 kts | 285° |
| 2026-05-01 12:15 | 45.54526 | 5.60691 | 36281 ft | 436 kts | 284° |
| 2026-05-01 12:16 | 45.56107 | 5.52289 | 36276 ft | 436 kts | 284° |
| 2026-05-01 12:16 | 45.57586 | 5.43963 | 36275 ft | 436 kts | 283° |
| 2026-05-01 12:17 | 45.59006 | 5.35491 | 36277 ft | 436 kts | 283° |
| 2026-05-01 12:17 | 45.60416 | 5.27055 | 36276 ft | 436 kts | 283° |
| 2026-05-01 12:18 | 45.61839 | 5.18653 | 36271 ft | 436 kts | 283° |
| 2026-05-01 12:18 | 45.63272 | 5.10236 | 36266 ft | 435 kts | 283° |
| 2026-05-01 12:19 | 45.64688 | 5.01829 | 36262 ft | 435 kts | 282° |
| 2026-05-01 12:19 | 45.66079 | 4.93424 | 36254 ft | 435 kts | 282° |
| 2026-05-01 12:20 | 45.67473 | 4.85003 | 36252 ft | 435 kts | 282° |
| 2026-05-01 12:20 | 45.68867 | 4.76597 | 36250 ft | 435 kts | 282° |
| 2026-05-01 12:21 | 45.70259 | 4.68167 | 36256 ft | 435 kts | 282° |
| 2026-05-01 12:21 | 45.71643 | 4.59755 | 36246 ft | 435 kts | 282° |
| 2026-05-01 12:22 | 45.73029 | 4.51277 | 36246 ft | 435 kts | 282° |
| 2026-05-01 12:22 | 45.74396 | 4.42846 | 36244 ft | 435 kts | 282° |
| 2026-05-01 12:23 | 45.75756 | 4.34410 | 36238 ft | 434 kts | 282° |
| 2026-05-01 12:23 | 45.77117 | 4.25977 | 36241 ft | 434 kts | 281° |
| 2026-05-01 12:24 | 45.78459 | 4.17556 | 36240 ft | 434 kts | 281° |
| 2026-05-01 12:24 | 45.79798 | 4.09110 | 36239 ft | 435 kts | 281° |
| 2026-05-01 12:25 | 45.81806 | 3.96430 | 36242 ft | 435 kts | 281° |
| 2026-05-01 12:26 | 45.83137 | 3.87960 | 36245 ft | 435 kts | 281° |
| 2026-05-01 12:26 | 45.85120 | 3.75193 | 36242 ft | 435 kts | 281° |
| 2026-05-01 12:27 | 45.87086 | 3.62492 | 36238 ft | 435 kts | 281° |
| 2026-05-01 12:28 | 45.89051 | 3.49805 | 36233 ft | 434 kts | 281° |
| 2026-05-01 12:29 | 45.91111 | 3.37131 | 36232 ft | 435 kts | 281° |
| 2026-05-01 12:29 | 45.93145 | 3.24444 | 36244 ft | 435 kts | 281° |
| 2026-05-01 12:30 | 45.95154 | 3.11731 | 36252 ft | 435 kts | 281° |
| 2026-05-01 12:31 | 45.96482 | 3.03260 | 36248 ft | 434 kts | 281° |
| 2026-05-01 12:31 | 45.97808 | 2.94786 | 36245 ft | 434 kts | 281° |
| 2026-05-01 12:32 | 45.99119 | 2.86312 | 36241 ft | 434 kts | 281° |
| 2026-05-01 12:32 | 45.99708 | 2.77672 | 36240 ft | 431 kts | 266° |
| 2026-05-01 12:32 | 45.99576 | 2.73365 | 36246 ft | 432 kts | 266° |
| 2026-05-01 12:33 | 45.99317 | 2.64734 | 36243 ft | 432 kts | 266° |
| 2026-05-01 12:33 | 45.99058 | 2.56097 | 36246 ft | 432 kts | 266° |
| 2026-05-01 12:34 | 45.98793 | 2.47465 | 36252 ft | 432 kts | 266° |
| 2026-05-01 12:34 | 45.98516 | 2.38824 | 36254 ft | 432 kts | 266° |
| 2026-05-01 12:35 | 45.98233 | 2.30187 | 36254 ft | 433 kts | 266° |
| 2026-05-01 12:35 | 45.97952 | 2.21542 | 36253 ft | 433 kts | 266° |
| 2026-05-01 12:36 | 45.97661 | 2.12896 | 36249 ft | 433 kts | 266° |
| 2026-05-01 12:36 | 45.97409 | 2.05650 | 36247 ft | 433 kts | 266° |
| 2026-05-01 12:37 | 45.97103 | 1.97005 | 36247 ft | 433 kts | 266° |
| 2026-05-01 12:37 | 45.96782 | 1.88365 | 36238 ft | 433 kts | 264° |
| 2026-05-01 12:38 | 45.95552 | 1.79915 | 36223 ft | 433 kts | 255° |
| 2026-05-01 12:38 | 45.94054 | 1.71518 | 36218 ft | 434 kts | 255° |
| 2026-05-01 12:39 | 45.92563 | 1.63116 | 36221 ft | 434 kts | 255° |
| 2026-05-01 12:39 | 45.91074 | 1.54709 | 36229 ft | 435 kts | 255° |
| 2026-05-01 12:40 | 45.89563 | 1.46273 | 36228 ft | 437 kts | 255° |
| 2026-05-01 12:40 | 45.88040 | 1.37830 | 36230 ft | 437 kts | 255° |
| 2026-05-01 12:41 | 45.86506 | 1.29384 | 36236 ft | 438 kts | 255° |
| 2026-05-01 12:41 | 45.84959 | 1.20918 | 36242 ft | 438 kts | 255° |
| 2026-05-01 12:42 | 45.83400 | 1.12415 | 36241 ft | 438 kts | 255° |
| 2026-05-01 12:42 | 45.82336 | 1.03805 | 36235 ft | 440 kts | 268° |
| 2026-05-01 12:43 | 45.83160 | 0.95178 | 36230 ft | 444 kts | 285° |
| 2026-05-01 12:43 | 45.84974 | 0.86628 | 36224 ft | 445 kts | 285° |
| 2026-05-01 12:44 | 45.86754 | 0.78120 | 36222 ft | 445 kts | 285° |
| 2026-05-01 12:45 | 45.90305 | 0.61071 | 36206 ft | 446 kts | 285° |
| 2026-05-01 12:45 | 45.92075 | 0.52535 | 36206 ft | 446 kts | 284° |
| 2026-05-01 12:46 | 45.93839 | 0.43986 | 36203 ft | 446 kts | 284° |
| 2026-05-01 12:46 | 45.95598 | 0.35443 | 36204 ft | 446 kts | 284° |
| 2026-05-01 12:47 | 45.97352 | 0.26881 | 36210 ft | 446 kts | 284° |
| 2026-05-01 12:47 | 45.99098 | 0.18322 | 36208 ft | 446 kts | 284° |
| 2026-05-01 12:48 | 46.00833 | 0.09747 | 36203 ft | 446 kts | 284° |
| 2026-05-01 12:48 | 46.02559 | 0.01183 | 36201 ft | 446 kts | 284° |
| 2026-05-01 12:49 | 46.04292 | -0.07388 | 36196 ft | 446 kts | 284° |
| 2026-05-01 12:49 | 46.06018 | -0.15981 | 36195 ft | 447 kts | 284° |
| 2026-05-01 12:50 | 46.07732 | -0.24597 | 35290 ft | 445 kts | 284° |
| 2026-05-01 12:50 | 46.08585 | -0.28904 | 34162 ft | 450 kts | 284° |
| 2026-05-01 12:50 | 46.09448 | -0.33263 | 33042 ft | 453 kts | 284° |
| 2026-05-01 12:51 | 46.10310 | -0.37627 | 31976 ft | 453 kts | 284° |
| 2026-05-01 12:51 | 46.11172 | -0.42006 | 30904 ft | 454 kts | 284° |
| 2026-05-01 12:51 | 46.12904 | -0.50752 | 28702 ft | 451 kts | 284° |
| 2026-05-01 12:52 | 46.13755 | -0.55062 | 27796 ft | 444 kts | 284° |
| 2026-05-01 12:52 | 46.15414 | -0.63536 | 26012 ft | 433 kts | 284° |
| 2026-05-01 12:52 | 46.16222 | -0.67697 | 25175 ft | 428 kts | 284° |
| 2026-05-01 12:53 | 46.17804 | -0.75879 | 23544 ft | 419 kts | 284° |
| 2026-05-01 12:53 | 46.18583 | -0.79916 | 22644 ft | 414 kts | 284° |
| 2026-05-01 12:53 | 46.19338 | -0.83821 | 22057 ft | 398 kts | 284° |
| 2026-05-01 12:54 | 46.20075 | -0.87639 | 21518 ft | 392 kts | 284° |
| 2026-05-01 12:54 | 46.22404 | -0.94618 | 20448 ft | 386 kts | 306° |
| 2026-05-01 12:54 | 46.24219 | -0.97476 | 19895 ft | 385 kts | 316° |
| 2026-05-01 12:55 | 46.28358 | -1.02294 | 18751 ft | 380 kts | 320° |
| 2026-05-01 12:55 | 46.30414 | -1.04669 | 18107 ft | 378 kts | 320° |
| 2026-05-01 12:55 | 46.32465 | -1.07040 | 17515 ft | 374 kts | 320° |
| 2026-05-01 12:56 | 46.34487 | -1.09382 | 16913 ft | 371 kts | 320° |
| 2026-05-01 12:56 | 46.36490 | -1.11710 | 16338 ft | 368 kts | 320° |
| 2026-05-01 12:56 | 46.38498 | -1.14050 | 15741 ft | 365 kts | 320° |
| 2026-05-01 12:56 | 46.40474 | -1.16353 | 15153 ft | 363 kts | 320° |
| 2026-05-01 12:57 | 46.42430 | -1.18632 | 14564 ft | 361 kts | 320° |
| 2026-05-01 12:57 | 46.46320 | -1.23173 | 13342 ft | 356 kts | 320° |
| 2026-05-01 12:57 | 46.48244 | -1.25419 | 12755 ft | 352 kts | 320° |
| 2026-05-01 12:58 | 46.50143 | -1.27639 | 12156 ft | 349 kts | 320° |
| 2026-05-01 12:58 | 46.52025 | -1.29838 | 11554 ft | 346 kts | 320° |
| 2026-05-01 12:58 | 46.53891 | -1.32023 | 10962 ft | 344 kts | 320° |
| 2026-05-01 12:59 | 46.57454 | -1.36200 | 10659 ft | 314 kts | 320° |
| 2026-05-01 12:59 | 46.59151 | -1.38103 | 10538 ft | 302 kts | 326° |
| 2026-05-01 12:59 | 46.59751 | -1.38627 | 10494 ft | 298 kts | 331° |
| 2026-05-01 13:00 | 46.66606 | -1.41635 | 9846 ft | 285 kts | 345° |
| 2026-05-01 13:00 | 46.68532 | -1.42368 | 9419 ft | 285 kts | 345° |
| 2026-05-01 13:01 | 46.72350 | -1.43839 | 8591 ft | 282 kts | 345° |
| 2026-05-01 13:01 | 46.74233 | -1.44583 | 8203 ft | 278 kts | 345° |
| 2026-05-01 13:01 | 46.77943 | -1.46054 | 7404 ft | 273 kts | 345° |
| 2026-05-01 13:02 | 46.79779 | -1.46785 | 6977 ft | 272 kts | 344° |